sensor_id;sensor_type;location;lat;lon;timestamp;P1;durP1;ratioP1;P2;durP2;ratioP2
25125;SDS011;13106;50.808;5.670;2022-09-29T00:01:34;10.32;;;8.52;;
25125;SDS011;13106;50.808;5.670;2022-09-29T00:04:00;10.45;;;7.68;;
25125;SDS011;13106;50.808;5.670;2022-09-29T00:06:26;8.95;;;7.95;;
25125;SDS011;13106;50.808;5.670;2022-09-29T00:08:52;9.15;;;7.72;;
25125;SDS011;13106;50.808;5.670;2022-09-29T00:11:18;10.65;;;7.47;;
25125;SDS011;13106;50.808;5.670;2022-09-29T00:13:44;8.32;;;7.53;;
25125;SDS011;13106;50.808;5.670;2022-09-29T00:16:11;9.73;;;7.85;;
25125;SDS011;13106;50.808;5.670;2022-09-29T00:18:37;12.65;;;7.82;;
25125;SDS011;13106;50.808;5.670;2022-09-29T00:21:04;10.80;;;7.90;;
25125;SDS011;13106;50.808;5.670;2022-09-29T00:23:31;9.95;;;8.23;;
25125;SDS011;13106;50.808;5.670;2022-09-29T00:26:01;9.98;;;8.35;;
25125;SDS011;13106;50.808;5.670;2022-09-29T00:28:29;9.35;;;8.45;;
25125;SDS011;13106;50.808;5.670;2022-09-29T00:30:56;14.35;;;8.32;;
25125;SDS011;13106;50.808;5.670;2022-09-29T00:33:23;8.98;;;7.97;;
25125;SDS011;13106;50.808;5.670;2022-09-29T00:35:56;10.85;;;7.78;;
25125;SDS011;13106;50.808;5.670;2022-09-29T00:38:23;12.15;;;8.18;;
25125;SDS011;13106;50.808;5.670;2022-09-29T00:40:49;9.23;;;7.85;;
25125;SDS011;13106;50.808;5.670;2022-09-29T00:43:18;13.15;;;9.13;;
25125;SDS011;13106;50.808;5.670;2022-09-29T00:45:45;11.18;;;8.35;;
25125;SDS011;13106;50.808;5.670;2022-09-29T00:48:12;9.30;;;7.07;;
25125;SDS011;13106;50.808;5.670;2022-09-29T00:50:51;11.95;;;8.35;;
25125;SDS011;13106;50.808;5.670;2022-09-29T00:53:18;10.90;;;8.30;;
25125;SDS011;13106;50.808;5.670;2022-09-29T00:55:47;7.18;;;6.45;;
25125;SDS011;13106;50.808;5.670;2022-09-29T00:58:26;9.38;;;6.75;;
25125;SDS011;13106;50.808;5.670;2022-09-29T01:00:53;8.80;;;6.50;;
25125;SDS011;13106;50.808;5.670;2022-09-29T01:03:20;11.73;;;7.72;;
25125;SDS011;13106;50.808;5.670;2022-09-29T01:06:05;8.02;;;6.78;;
25125;SDS011;13106;50.808;5.670;2022-09-29T01:11:11;10.93;;;7.55;;
25125;SDS011;13106;50.808;5.670;2022-09-29T01:13:37;10.57;;;8.43;;
25125;SDS011;13106;50.808;5.670;2022-09-29T01:16:05;9.27;;;8.02;;
25125;SDS011;13106;50.808;5.670;2022-09-29T01:18:31;12.05;;;8.27;;
25125;SDS011;13106;50.808;5.670;2022-09-29T01:23:31;10.07;;;8.50;;
25125;SDS011;13106;50.808;5.670;2022-09-29T01:34:05;11.32;;;9.68;;
25125;SDS011;13106;50.808;5.670;2022-09-29T01:41:48;14.60;;;9.93;;
25125;SDS011;13106;50.808;5.670;2022-09-29T01:44:23;12.30;;;10.98;;
25125;SDS011;13106;50.808;5.670;2022-09-29T01:46:52;9.30;;;8.23;;
25125;SDS011;13106;50.808;5.670;2022-09-29T01:49:20;12.00;;;10.45;;
25125;SDS011;13106;50.808;5.670;2022-09-29T01:51:52;9.93;;;8.90;;
25125;SDS011;13106;50.808;5.670;2022-09-29T01:54:30;11.38;;;7.50;;
25125;SDS011;13106;50.808;5.670;2022-09-29T01:56:59;8.57;;;7.45;;
25125;SDS011;13106;50.808;5.670;2022-09-29T01:59:35;10.52;;;8.55;;
25125;SDS011;13106;50.808;5.670;2022-09-29T02:02:04;9.50;;;7.85;;
25125;SDS011;13106;50.808;5.670;2022-09-29T02:04:32;10.70;;;7.78;;
25125;SDS011;13106;50.808;5.670;2022-09-29T02:07:08;10.80;;;7.68;;
25125;SDS011;13106;50.808;5.670;2022-09-29T02:09:38;9.10;;;7.68;;
25125;SDS011;13106;50.808;5.670;2022-09-29T02:12:04;11.32;;;8.43;;
25125;SDS011;13106;50.808;5.670;2022-09-29T02:14:36;10.98;;;9.38;;
25125;SDS011;13106;50.808;5.670;2022-09-29T02:17:23;8.32;;;7.57;;
25125;SDS011;13106;50.808;5.670;2022-09-29T02:19:50;9.10;;;7.93;;
25125;SDS011;13106;50.808;5.670;2022-09-29T02:22:16;10.95;;;9.50;;
25125;SDS011;13106;50.808;5.670;2022-09-29T02:24:42;10.20;;;7.88;;
25125;SDS011;13106;50.808;5.670;2022-09-29T02:27:09;8.80;;;7.68;;
25125;SDS011;13106;50.808;5.670;2022-09-29T02:29:36;10.60;;;7.45;;
25125;SDS011;13106;50.808;5.670;2022-09-29T02:32:03;8.93;;;7.47;;
25125;SDS011;13106;50.808;5.670;2022-09-29T02:34:30;8.98;;;7.65;;
25125;SDS011;13106;50.808;5.670;2022-09-29T02:39:39;7.80;;;7.00;;
25125;SDS011;13106;50.808;5.670;2022-09-29T02:44:44;8.88;;;7.70;;
25125;SDS011;13106;50.808;5.670;2022-09-29T02:55:12;8.52;;;7.35;;
25125;SDS011;13106;50.808;5.670;2022-09-29T03:00:09;8.80;;;7.90;;
25125;SDS011;13106;50.808;5.670;2022-09-29T03:02:36;10.75;;;8.50;;
25125;SDS011;13106;50.808;5.670;2022-09-29T03:05:24;9.23;;;7.55;;
25125;SDS011;13106;50.808;5.670;2022-09-29T03:07:50;10.45;;;8.27;;
25125;SDS011;13106;50.808;5.670;2022-09-29T03:10:16;8.07;;;7.20;;
25125;SDS011;13106;50.808;5.670;2022-09-29T03:12:42;14.35;;;8.07;;
25125;SDS011;13106;50.808;5.670;2022-09-29T03:15:08;8.77;;;7.88;;
25125;SDS011;13106;50.808;5.670;2022-09-29T03:17:36;9.77;;;7.68;;
25125;SDS011;13106;50.808;5.670;2022-09-29T03:20:03;11.55;;;7.82;;
25125;SDS011;13106;50.808;5.670;2022-09-29T03:22:29;11.20;;;7.82;;
25125;SDS011;13106;50.808;5.670;2022-09-29T03:24:55;10.05;;;7.50;;
25125;SDS011;13106;50.808;5.670;2022-09-29T03:27:21;9.30;;;7.10;;
25125;SDS011;13106;50.808;5.670;2022-09-29T03:29:47;10.52;;;7.13;;
25125;SDS011;13106;50.808;5.670;2022-09-29T03:32:14;8.68;;;6.75;;
25125;SDS011;13106;50.808;5.670;2022-09-29T03:34:40;15.13;;;7.43;;
25125;SDS011;13106;50.808;5.670;2022-09-29T03:37:06;10.68;;;7.57;;
25125;SDS011;13106;50.808;5.670;2022-09-29T03:39:32;15.13;;;8.13;;
25125;SDS011;13106;50.808;5.670;2022-09-29T03:41:59;10.20;;;8.00;;
25125;SDS011;13106;50.808;5.670;2022-09-29T03:44:25;14.07;;;7.88;;
25125;SDS011;13106;50.808;5.670;2022-09-29T03:46:51;12.30;;;7.97;;
25125;SDS011;13106;50.808;5.670;2022-09-29T03:49:17;9.32;;;7.22;;
25125;SDS011;13106;50.808;5.670;2022-09-29T03:51:43;9.10;;;7.20;;
25125;SDS011;13106;50.808;5.670;2022-09-29T03:54:09;10.63;;;7.18;;
25125;SDS011;13106;50.808;5.670;2022-09-29T03:56:36;8.55;;;6.60;;
25125;SDS011;13106;50.808;5.670;2022-09-29T03:59:02;9.35;;;7.68;;
25125;SDS011;13106;50.808;5.670;2022-09-29T04:01:30;8.50;;;7.60;;
25125;SDS011;13106;50.808;5.670;2022-09-29T04:03:56;10.05;;;8.32;;
25125;SDS011;13106;50.808;5.670;2022-09-29T04:06:22;12.88;;;7.80;;
25125;SDS011;13106;50.808;5.670;2022-09-29T04:08:48;7.93;;;7.15;;
25125;SDS011;13106;50.808;5.670;2022-09-29T04:11:14;9.95;;;7.63;;
25125;SDS011;13106;50.808;5.670;2022-09-29T04:13:40;8.07;;;7.07;;
25125;SDS011;13106;50.808;5.670;2022-09-29T04:16:06;9.68;;;7.15;;
25125;SDS011;13106;50.808;5.670;2022-09-29T04:18:32;8.70;;;7.78;;
25125;SDS011;13106;50.808;5.670;2022-09-29T04:20:59;10.98;;;8.07;;
25125;SDS011;13106;50.808;5.670;2022-09-29T04:23:28;10.43;;;8.07;;
25125;SDS011;13106;50.808;5.670;2022-09-29T04:25:55;11.83;;;8.03;;
25125;SDS011;13106;50.808;5.670;2022-09-29T04:28:21;8.23;;;7.03;;
25125;SDS011;13106;50.808;5.670;2022-09-29T04:30:47;9.73;;;7.55;;
25125;SDS011;13106;50.808;5.670;2022-09-29T04:33:13;12.57;;;7.15;;
25125;SDS011;13106;50.808;5.670;2022-09-29T04:35:40;9.10;;;8.18;;
25125;SDS011;13106;50.808;5.670;2022-09-29T04:38:06;10.25;;;6.72;;
25125;SDS011;13106;50.808;5.670;2022-09-29T04:40:35;8.85;;;6.60;;
25125;SDS011;13106;50.808;5.670;2022-09-29T04:43:01;9.43;;;6.95;;
25125;SDS011;13106;50.808;5.670;2022-09-29T04:45:28;9.20;;;7.70;;
25125;SDS011;13106;50.808;5.670;2022-09-29T04:47:54;11.20;;;7.18;;
25125;SDS011;13106;50.808;5.670;2022-09-29T04:50:21;9.88;;;6.72;;
25125;SDS011;13106;50.808;5.670;2022-09-29T04:52:47;7.13;;;6.43;;
25125;SDS011;13106;50.808;5.670;2022-09-29T04:55:13;7.60;;;6.45;;
25125;SDS011;13106;50.808;5.670;2022-09-29T04:57:40;8.45;;;6.90;;
25125;SDS011;13106;50.808;5.670;2022-09-29T05:00:07;11.63;;;7.40;;
25125;SDS011;13106;50.808;5.670;2022-09-29T05:02:34;8.00;;;6.57;;
25125;SDS011;13106;50.808;5.670;2022-09-29T05:05:00;8.40;;;6.57;;
25125;SDS011;13106;50.808;5.670;2022-09-29T05:07:26;10.65;;;6.22;;
25125;SDS011;13106;50.808;5.670;2022-09-29T05:09:52;10.13;;;6.50;;
25125;SDS011;13106;50.808;5.670;2022-09-29T05:12:18;10.23;;;6.95;;
25125;SDS011;13106;50.808;5.670;2022-09-29T05:14:45;10.00;;;6.15;;
25125;SDS011;13106;50.808;5.670;2022-09-29T05:17:11;8.00;;;6.05;;
25125;SDS011;13106;50.808;5.670;2022-09-29T05:19:37;14.43;;;7.13;;
25125;SDS011;13106;50.808;5.670;2022-09-29T05:22:04;15.77;;;10.38;;
25125;SDS011;13106;50.808;5.670;2022-09-29T05:24:30;9.63;;;8.32;;
25125;SDS011;13106;50.808;5.670;2022-09-29T05:26:56;9.10;;;8.30;;
25125;SDS011;13106;50.808;5.670;2022-09-29T05:29:22;13.70;;;7.65;;
25125;SDS011;13106;50.808;5.670;2022-09-29T05:31:49;9.13;;;7.85;;
25125;SDS011;13106;50.808;5.670;2022-09-29T05:34:15;10.13;;;7.30;;
25125;SDS011;13106;50.808;5.670;2022-09-29T05:36:41;15.18;;;8.07;;
25125;SDS011;13106;50.808;5.670;2022-09-29T05:39:07;10.57;;;7.75;;
25125;SDS011;13106;50.808;5.670;2022-09-29T05:41:33;9.00;;;7.35;;
25125;SDS011;13106;50.808;5.670;2022-09-29T05:43:59;10.77;;;8.15;;
25125;SDS011;13106;50.808;5.670;2022-09-29T05:46:25;11.00;;;7.45;;
25125;SDS011;13106;50.808;5.670;2022-09-29T05:48:52;11.75;;;7.22;;
25125;SDS011;13106;50.808;5.670;2022-09-29T05:51:19;10.77;;;7.28;;
25125;SDS011;13106;50.808;5.670;2022-09-29T05:53:45;9.73;;;7.63;;
25125;SDS011;13106;50.808;5.670;2022-09-29T05:56:13;10.10;;;7.35;;
25125;SDS011;13106;50.808;5.670;2022-09-29T05:58:40;11.27;;;7.05;;
25125;SDS011;13106;50.808;5.670;2022-09-29T06:01:10;10.02;;;7.85;;
25125;SDS011;13106;50.808;5.670;2022-09-29T06:03:36;10.73;;;7.03;;
25125;SDS011;13106;50.808;5.670;2022-09-29T06:06:13;10.27;;;9.25;;
25125;SDS011;13106;50.808;5.670;2022-09-29T06:08:39;10.88;;;7.18;;
25125;SDS011;13106;50.808;5.670;2022-09-29T06:11:07;10.18;;;6.20;;
25125;SDS011;13106;50.808;5.670;2022-09-29T06:13:33;7.85;;;6.40;;
25125;SDS011;13106;50.808;5.670;2022-09-29T06:16:02;8.13;;;6.40;;
25125;SDS011;13106;50.808;5.670;2022-09-29T06:18:28;10.23;;;6.60;;
25125;SDS011;13106;50.808;5.670;2022-09-29T06:20:58;12.70;;;6.00;;
25125;SDS011;13106;50.808;5.670;2022-09-29T06:23:24;8.40;;;6.45;;
25125;SDS011;13106;50.808;5.670;2022-09-29T06:25:54;7.22;;;5.57;;
25125;SDS011;13106;50.808;5.670;2022-09-29T06:28:20;7.78;;;6.25;;
25125;SDS011;13106;50.808;5.670;2022-09-29T06:30:46;9.40;;;5.82;;
25125;SDS011;13106;50.808;5.670;2022-09-29T06:33:12;8.85;;;5.97;;
25125;SDS011;13106;50.808;5.670;2022-09-29T06:35:38;16.38;;;5.97;;
25125;SDS011;13106;50.808;5.670;2022-09-29T06:38:22;12.07;;;6.45;;
25125;SDS011;13106;50.808;5.670;2022-09-29T06:40:48;14.00;;;6.85;;
25125;SDS011;13106;50.808;5.670;2022-09-29T06:43:14;13.10;;;6.32;;
25125;SDS011;13106;50.808;5.670;2022-09-29T06:45:41;15.25;;;6.57;;
25125;SDS011;13106;50.808;5.670;2022-09-29T06:48:07;15.05;;;7.07;;
25125;SDS011;13106;50.808;5.670;2022-09-29T06:50:34;20.00;;;6.88;;
25125;SDS011;13106;50.808;5.670;2022-09-29T06:53:00;21.73;;;7.22;;
25125;SDS011;13106;50.808;5.670;2022-09-29T06:55:26;18.52;;;7.35;;
25125;SDS011;13106;50.808;5.670;2022-09-29T06:57:53;16.48;;;8.13;;
25125;SDS011;13106;50.808;5.670;2022-09-29T07:00:19;15.82;;;7.93;;
25125;SDS011;13106;50.808;5.670;2022-09-29T07:02:45;20.48;;;8.02;;
25125;SDS011;13106;50.808;5.670;2022-09-29T07:05:11;16.48;;;8.90;;
25125;SDS011;13106;50.808;5.670;2022-09-29T07:07:37;31.80;;;9.10;;
25125;SDS011;13106;50.808;5.670;2022-09-29T07:10:03;22.92;;;8.43;;
25125;SDS011;13106;50.808;5.670;2022-09-29T07:12:29;17.67;;;7.78;;
25125;SDS011;13106;50.808;5.670;2022-09-29T07:14:55;13.98;;;7.80;;
25125;SDS011;13106;50.808;5.670;2022-09-29T07:17:21;24.08;;;8.52;;
25125;SDS011;13106;50.808;5.670;2022-09-29T07:19:47;24.13;;;8.40;;
25125;SDS011;13106;50.808;5.670;2022-09-29T07:22:13;19.65;;;8.20;;
25125;SDS011;13106;50.808;5.670;2022-09-29T07:24:39;20.52;;;7.88;;
25125;SDS011;13106;50.808;5.670;2022-09-29T07:27:07;20.83;;;8.57;;
25125;SDS011;13106;50.808;5.670;2022-09-29T07:29:33;19.45;;;7.85;;
25125;SDS011;13106;50.808;5.670;2022-09-29T07:31:59;15.27;;;7.20;;
25125;SDS011;13106;50.808;5.670;2022-09-29T07:34:25;22.55;;;7.80;;
25125;SDS011;13106;50.808;5.670;2022-09-29T07:36:51;24.85;;;8.23;;
25125;SDS011;13106;50.808;5.670;2022-09-29T07:39:18;27.52;;;7.90;;
25125;SDS011;13106;50.808;5.670;2022-09-29T07:41:45;15.60;;;7.70;;
25125;SDS011;13106;50.808;5.670;2022-09-29T07:44:11;18.30;;;7.38;;
25125;SDS011;13106;50.808;5.670;2022-09-29T07:46:37;18.77;;;7.47;;
25125;SDS011;13106;50.808;5.670;2022-09-29T07:49:03;19.60;;;8.00;;
25125;SDS011;13106;50.808;5.670;2022-09-29T07:51:29;23.17;;;7.68;;
25125;SDS011;13106;50.808;5.670;2022-09-29T07:54:00;29.42;;;8.07;;
25125;SDS011;13106;50.808;5.670;2022-09-29T07:56:26;21.58;;;7.82;;
25125;SDS011;13106;50.808;5.670;2022-09-29T07:58:52;18.33;;;8.50;;
25125;SDS011;13106;50.808;5.670;2022-09-29T08:01:18;20.60;;;7.68;;
25125;SDS011;13106;50.808;5.670;2022-09-29T08:03:51;22.38;;;7.20;;
25125;SDS011;13106;50.808;5.670;2022-09-29T08:06:18;20.88;;;6.22;;
25125;SDS011;13106;50.808;5.670;2022-09-29T08:08:44;17.88;;;7.38;;
25125;SDS011;13106;50.808;5.670;2022-09-29T08:11:11;15.43;;;6.38;;
25125;SDS011;13106;50.808;5.670;2022-09-29T08:13:38;15.23;;;5.95;;
25125;SDS011;13106;50.808;5.670;2022-09-29T08:16:05;17.17;;;5.30;;
25125;SDS011;13106;50.808;5.670;2022-09-29T08:18:31;9.93;;;4.45;;
25125;SDS011;13106;50.808;5.670;2022-09-29T08:20:58;9.00;;;4.55;;
25125;SDS011;13106;50.808;5.670;2022-09-29T08:23:24;7.63;;;4.10;;
25125;SDS011;13106;50.808;5.670;2022-09-29T08:26:05;9.73;;;5.88;;
25125;SDS011;13106;50.808;5.670;2022-09-29T08:28:32;11.43;;;4.88;;
25125;SDS011;13106;50.808;5.670;2022-09-29T08:31:02;9.65;;;4.22;;
25125;SDS011;13106;50.808;5.670;2022-09-29T08:33:28;9.07;;;4.43;;
25125;SDS011;13106;50.808;5.670;2022-09-29T08:35:58;6.45;;;3.55;;
25125;SDS011;13106;50.808;5.670;2022-09-29T08:38:24;16.90;;;11.57;;
25125;SDS011;13106;50.808;5.670;2022-09-29T08:40:51;6.50;;;5.22;;
25125;SDS011;13106;50.808;5.670;2022-09-29T08:43:19;7.28;;;3.20;;
25125;SDS011;13106;50.808;5.670;2022-09-29T08:46:10;8.55;;;4.53;;
25125;SDS011;13106;50.808;5.670;2022-09-29T08:48:40;7.10;;;4.38;;
25125;SDS011;13106;50.808;5.670;2022-09-29T08:51:30;9.38;;;5.00;;
25125;SDS011;13106;50.808;5.670;2022-09-29T08:53:54;5.22;;;3.33;;
25125;SDS011;13106;50.808;5.670;2022-09-29T08:56:22;3.42;;;3.03;;
25125;SDS011;13106;50.808;5.670;2022-09-29T08:58:49;4.22;;;2.65;;
25125;SDS011;13106;50.808;5.670;2022-09-29T09:01:20;3.38;;;2.55;;
25125;SDS011;13106;50.808;5.670;2022-09-29T09:14:10;7.47;;;2.63;;
25125;SDS011;13106;50.808;5.670;2022-09-29T09:17:02;7.70;;;2.45;;
25125;SDS011;13106;50.808;5.670;2022-09-29T09:21:54;4.25;;;2.50;;
25125;SDS011;13106;50.808;5.670;2022-09-29T09:24:36;9.32;;;2.92;;
25125;SDS011;13106;50.808;5.670;2022-09-29T09:27:07;6.80;;;2.75;;
25125;SDS011;13106;50.808;5.670;2022-09-29T09:29:36;7.88;;;3.03;;
25125;SDS011;13106;50.808;5.670;2022-09-29T09:37:33;4.57;;;2.45;;
25125;SDS011;13106;50.808;5.670;2022-09-29T09:42:39;6.05;;;2.88;;
25125;SDS011;13106;50.808;5.670;2022-09-29T09:45:09;4.60;;;2.63;;
25125;SDS011;13106;50.808;5.670;2022-09-29T09:47:52;8.93;;;3.10;;
25125;SDS011;13106;50.808;5.670;2022-09-29T09:50:19;5.32;;;2.53;;
25125;SDS011;13106;50.808;5.670;2022-09-29T09:52:46;5.25;;;2.70;;
25125;SDS011;13106;50.808;5.670;2022-09-29T09:55:25;4.93;;;2.58;;
25125;SDS011;13106;50.808;5.670;2022-09-29T10:02:50;5.30;;;2.63;;
25125;SDS011;13106;50.808;5.670;2022-09-29T10:05:18;4.85;;;2.65;;
25125;SDS011;13106;50.808;5.670;2022-09-29T10:07:44;7.28;;;2.80;;
25125;SDS011;13106;50.808;5.670;2022-09-29T10:10:22;5.07;;;2.78;;
25125;SDS011;13106;50.808;5.670;2022-09-29T10:15:39;4.72;;;2.63;;
25125;SDS011;13106;50.808;5.670;2022-09-29T10:20:52;8.02;;;2.80;;
25125;SDS011;13106;50.808;5.670;2022-09-29T10:23:28;6.05;;;2.35;;
25125;SDS011;13106;50.808;5.670;2022-09-29T10:28:28;7.22;;;2.53;;
25125;SDS011;13106;50.808;5.670;2022-09-29T10:30:55;3.55;;;2.30;;
25125;SDS011;13106;50.808;5.670;2022-09-29T10:33:22;7.53;;;2.20;;
25125;SDS011;13106;50.808;5.670;2022-09-29T10:35:49;7.50;;;2.50;;
25125;SDS011;13106;50.808;5.670;2022-09-29T10:43:23;4.80;;;2.85;;
25125;SDS011;13106;50.808;5.670;2022-09-29T10:45:49;4.90;;;2.80;;
25125;SDS011;13106;50.808;5.670;2022-09-29T10:48:17;6.15;;;2.60;;
25125;SDS011;13106;50.808;5.670;2022-09-29T10:55:56;8.15;;;2.88;;
25125;SDS011;13106;50.808;5.670;2022-09-29T10:58:23;6.85;;;2.88;;
25125;SDS011;13106;50.808;5.670;2022-09-29T11:01:06;5.93;;;2.80;;
25125;SDS011;13106;50.808;5.670;2022-09-29T11:03:33;4.78;;;1.98;;
25125;SDS011;13106;50.808;5.670;2022-09-29T11:06:02;6.07;;;2.10;;
25125;SDS011;13106;50.808;5.670;2022-09-29T11:08:29;4.18;;;1.98;;
25125;SDS011;13106;50.808;5.670;2022-09-29T11:13:40;4.82;;;1.95;;
25125;SDS011;13106;50.808;5.670;2022-09-29T11:18:39;3.95;;;1.40;;
25125;SDS011;13106;50.808;5.670;2022-09-29T11:21:12;2.78;;;1.48;;
25125;SDS011;13106;50.808;5.670;2022-09-29T11:26:32;4.20;;;1.83;;
25125;SDS011;13106;50.808;5.670;2022-09-29T11:37:23;5.00;;;2.05;;
25125;SDS011;13106;50.808;5.670;2022-09-29T11:42:36;7.22;;;2.38;;
25125;SDS011;13106;50.808;5.670;2022-09-29T11:45:07;6.55;;;1.50;;
25125;SDS011;13106;50.808;5.670;2022-09-29T11:47:44;8.32;;;3.35;;
25125;SDS011;13106;50.808;5.670;2022-09-29T11:55:23;4.82;;;1.63;;
25125;SDS011;13106;50.808;5.670;2022-09-29T11:57:57;3.30;;;1.60;;
25125;SDS011;13106;50.808;5.670;2022-09-29T12:03:17;4.63;;;1.70;;
25125;SDS011;13106;50.808;5.670;2022-09-29T12:18:17;5.18;;;0.70;;
25125;SDS011;13106;50.808;5.670;2022-09-29T12:20:45;3.45;;;0.75;;
25125;SDS011;13106;50.808;5.670;2022-09-29T12:23:13;3.10;;;1.00;;
25125;SDS011;13106;50.808;5.670;2022-09-29T12:25:51;2.08;;;1.00;;
25125;SDS011;13106;50.808;5.670;2022-09-29T12:28:19;4.25;;;1.10;;
25125;SDS011;13106;50.808;5.670;2022-09-29T12:30:48;1.65;;;1.05;;
25125;SDS011;13106;50.808;5.670;2022-09-29T12:33:32;2.08;;;1.08;;
25125;SDS011;13106;50.808;5.670;2022-09-29T12:39:03;3.45;;;1.27;;
25125;SDS011;13106;50.808;5.670;2022-09-29T12:41:32;2.47;;;0.70;;
25125;SDS011;13106;50.808;5.670;2022-09-29T12:44:13;2.43;;;0.80;;
25125;SDS011;13106;50.808;5.670;2022-09-29T12:46:41;6.55;;;0.90;;
25125;SDS011;13106;50.808;5.670;2022-09-29T12:49:13;15.40;;;1.30;;
25125;SDS011;13106;50.808;5.670;2022-09-29T12:51:46;6.35;;;0.90;;
25125;SDS011;13106;50.808;5.670;2022-09-29T12:57:14;2.80;;;1.10;;
25125;SDS011;13106;50.808;5.670;2022-09-29T12:59:37;1.75;;;0.60;;
25125;SDS011;13106;50.808;5.670;2022-09-29T13:07:25;3.47;;;0.57;;
25125;SDS011;13106;50.808;5.670;2022-09-29T13:12:39;2.45;;;0.57;;
25125;SDS011;13106;50.808;5.670;2022-09-29T13:28:25;2.55;;;0.90;;
25125;SDS011;13106;50.808;5.670;2022-09-29T13:30:54;1.75;;;0.65;;
25125;SDS011;13106;50.808;5.670;2022-09-29T13:33:23;1.95;;;0.60;;
25125;SDS011;13106;50.808;5.670;2022-09-29T13:35:50;2.08;;;0.70;;
25125;SDS011;13106;50.808;5.670;2022-09-29T13:38:26;1.63;;;0.60;;
25125;SDS011;13106;50.808;5.670;2022-09-29T13:54:39;5.30;;;0.82;;
25125;SDS011;13106;50.808;5.670;2022-09-29T13:57:05;5.63;;;0.63;;
25125;SDS011;13106;50.808;5.670;2022-09-29T13:59:32;0.68;;;0.50;;
25125;SDS011;13106;50.808;5.670;2022-09-29T14:02:00;2.72;;;0.77;;
25125;SDS011;13106;50.808;5.670;2022-09-29T14:04:34;2.17;;;0.60;;
25125;SDS011;13106;50.808;5.670;2022-09-29T14:07:01;3.33;;;0.70;;
25125;SDS011;13106;50.808;5.670;2022-09-29T14:09:37;3.00;;;0.60;;
25125;SDS011;13106;50.808;5.670;2022-09-29T14:12:06;1.38;;;0.38;;
25125;SDS011;13106;50.808;5.670;2022-09-29T14:14:37;1.95;;;0.47;;
25125;SDS011;13106;50.808;5.670;2022-09-29T14:17:07;1.30;;;0.75;;
25125;SDS011;13106;50.808;5.670;2022-09-29T14:20:21;1.38;;;0.70;;
25125;SDS011;13106;50.808;5.670;2022-09-29T14:27:34;3.22;;;0.60;;
25125;SDS011;13106;50.808;5.670;2022-09-29T14:35:12;2.17;;;0.70;;
25125;SDS011;13106;50.808;5.670;2022-09-29T14:37:39;3.10;;;0.75;;
25125;SDS011;13106;50.808;5.670;2022-09-29T14:40:06;2.40;;;0.65;;
25125;SDS011;13106;50.808;5.670;2022-09-29T14:43:10;2.10;;;0.50;;
25125;SDS011;13106;50.808;5.670;2022-09-29T14:49:29;1.10;;;0.43;;
25125;SDS011;13106;50.808;5.670;2022-09-29T15:02:10;8.45;;;2.85;;
25125;SDS011;13106;50.808;5.670;2022-09-29T15:04:40;6.80;;;2.63;;
25125;SDS011;13106;50.808;5.670;2022-09-29T15:07:13;3.92;;;1.30;;
25125;SDS011;13106;50.808;5.670;2022-09-29T15:09:44;2.55;;;1.00;;
25125;SDS011;13106;50.808;5.670;2022-09-29T15:12:29;1.45;;;0.80;;
25125;SDS011;13106;50.808;5.670;2022-09-29T15:14:56;6.57;;;3.17;;
25125;SDS011;13106;50.808;5.670;2022-09-29T15:25:21;4.57;;;0.80;;
25125;SDS011;13106;50.808;5.670;2022-09-29T15:27:50;5.32;;;3.38;;
25125;SDS011;13106;50.808;5.670;2022-09-29T15:30:19;5.22;;;2.85;;
25125;SDS011;13106;50.808;5.670;2022-09-29T15:32:45;3.20;;;2.13;;
25125;SDS011;13106;50.808;5.670;2022-09-29T15:35:14;1.38;;;0.95;;
25125;SDS011;13106;50.808;5.670;2022-09-29T15:37:53;7.38;;;0.88;;
25125;SDS011;13106;50.808;5.670;2022-09-29T15:40:20;4.05;;;0.85;;
25125;SDS011;13106;50.808;5.670;2022-09-29T15:42:48;5.05;;;1.25;;
25125;SDS011;13106;50.808;5.670;2022-09-29T15:45:20;6.28;;;1.08;;
25125;SDS011;13106;50.808;5.670;2022-09-29T15:47:47;4.68;;;1.10;;
25125;SDS011;13106;50.808;5.670;2022-09-29T15:50:20;3.55;;;2.67;;
25125;SDS011;13106;50.808;5.670;2022-09-29T15:52:46;1.85;;;0.73;;
25125;SDS011;13106;50.808;5.670;2022-09-29T15:55:14;6.63;;;2.17;;
25125;SDS011;13106;50.808;5.670;2022-09-29T15:57:47;4.57;;;1.40;;
25125;SDS011;13106;50.808;5.670;2022-09-29T16:05:16;1.75;;;0.60;;
25125;SDS011;13106;50.808;5.670;2022-09-29T16:07:48;2.70;;;0.90;;
25125;SDS011;13106;50.808;5.670;2022-09-29T16:12:45;3.17;;;0.68;;
25125;SDS011;13106;50.808;5.670;2022-09-29T16:15:17;3.70;;;0.70;;
25125;SDS011;13106;50.808;5.670;2022-09-29T16:17:46;1.50;;;0.70;;
25125;SDS011;13106;50.808;5.670;2022-09-29T16:20:13;1.50;;;0.50;;
25125;SDS011;13106;50.808;5.670;2022-09-29T16:22:41;1.27;;;0.60;;
25125;SDS011;13106;50.808;5.670;2022-09-29T16:25:25;1.02;;;0.60;;
25125;SDS011;13106;50.808;5.670;2022-09-29T16:27:53;1.00;;;0.60;;
25125;SDS011;13106;50.808;5.670;2022-09-29T16:30:28;1.27;;;0.47;;
25125;SDS011;13106;50.808;5.670;2022-09-29T16:33:00;1.30;;;0.68;;
25125;SDS011;13106;50.808;5.670;2022-09-29T16:38:09;4.07;;;0.65;;
25125;SDS011;13106;50.808;5.670;2022-09-29T16:40:39;1.60;;;0.90;;
25125;SDS011;13106;50.808;5.670;2022-09-29T16:43:05;1.67;;;0.75;;
25125;SDS011;13106;50.808;5.670;2022-09-29T16:45:31;2.63;;;0.70;;
25125;SDS011;13106;50.808;5.670;2022-09-29T16:47:57;1.77;;;0.60;;
25125;SDS011;13106;50.808;5.670;2022-09-29T16:50:23;1.25;;;0.70;;
25125;SDS011;13106;50.808;5.670;2022-09-29T16:52:50;0.77;;;0.55;;
25125;SDS011;13106;50.808;5.670;2022-09-29T16:57:56;3.08;;;0.90;;
25125;SDS011;13106;50.808;5.670;2022-09-29T17:00:23;1.17;;;0.65;;
25125;SDS011;13106;50.808;5.670;2022-09-29T17:02:50;4.70;;;0.73;;
25125;SDS011;13106;50.808;5.670;2022-09-29T17:05:17;1.42;;;0.75;;
25125;SDS011;13106;50.808;5.670;2022-09-29T17:07:43;3.25;;;0.77;;
25125;SDS011;13106;50.808;5.670;2022-09-29T17:10:13;1.80;;;0.70;;
25125;SDS011;13106;50.808;5.670;2022-09-29T17:12:40;2.72;;;0.90;;
25125;SDS011;13106;50.808;5.670;2022-09-29T17:15:10;3.38;;;0.70;;
25125;SDS011;13106;50.808;5.670;2022-09-29T17:20:05;3.30;;;0.95;;
25125;SDS011;13106;50.808;5.670;2022-09-29T17:22:37;3.13;;;1.20;;
25125;SDS011;13106;50.808;5.670;2022-09-29T17:25:03;1.88;;;1.08;;
25125;SDS011;13106;50.808;5.670;2022-09-29T17:27:29;3.50;;;1.38;;
25125;SDS011;13106;50.808;5.670;2022-09-29T17:30:19;4.45;;;1.38;;
25125;SDS011;13106;50.808;5.670;2022-09-29T17:32:47;1.38;;;1.15;;
25125;SDS011;13106;50.808;5.670;2022-09-29T17:35:13;3.05;;;1.60;;
25125;SDS011;13106;50.808;5.670;2022-09-29T17:37:40;2.30;;;1.70;;
25125;SDS011;13106;50.808;5.670;2022-09-29T17:40:16;4.28;;;1.58;;
25125;SDS011;13106;50.808;5.670;2022-09-29T17:42:44;4.43;;;2.35;;
25125;SDS011;13106;50.808;5.670;2022-09-29T17:45:12;5.10;;;2.60;;
25125;SDS011;13106;50.808;5.670;2022-09-29T17:47:40;3.72;;;2.53;;
25125;SDS011;13106;50.808;5.670;2022-09-29T17:50:16;6.28;;;3.40;;
25125;SDS011;13106;50.808;5.670;2022-09-29T17:52:42;5.32;;;3.40;;
25125;SDS011;13106;50.808;5.670;2022-09-29T17:55:08;3.55;;;3.25;;
25125;SDS011;13106;50.808;5.670;2022-09-29T17:57:35;2.83;;;2.45;;
25125;SDS011;13106;50.808;5.670;2022-09-29T18:00:05;4.85;;;1.90;;
25125;SDS011;13106;50.808;5.670;2022-09-29T18:02:31;4.57;;;2.20;;
25125;SDS011;13106;50.808;5.670;2022-09-29T18:04:57;4.93;;;2.95;;
25125;SDS011;13106;50.808;5.670;2022-09-29T18:07:23;2.13;;;2.00;;
25125;SDS011;13106;50.808;5.670;2022-09-29T18:09:49;3.30;;;2.08;;
25125;SDS011;13106;50.808;5.670;2022-09-29T18:12:15;3.92;;;3.58;;
25125;SDS011;13106;50.808;5.670;2022-09-29T18:14:41;5.78;;;2.10;;
25125;SDS011;13106;50.808;5.670;2022-09-29T18:17:07;3.05;;;1.80;;
25125;SDS011;13106;50.808;5.670;2022-09-29T18:19:33;4.40;;;1.40;;